createdAt,value
2023-01-13T00:00:16.388Z,75.50
2023-01-13T00:02:42.985Z,75.84
2023-01-13T00:05:10.557Z,75.45
2023-01-13T00:07:40.132Z,75.41
2023-01-13T00:10:11.131Z,74.92
2023-01-13T00:12:42.165Z,75.02
2023-01-13T00:15:11.085Z,75.40
2023-01-13T00:17:38.734Z,75.37
2023-01-13T00:20:06.488Z,74.98
2023-01-13T00:22:34.917Z,75.10
2023-01-13T00:25:01.834Z,74.99
2023-01-13T00:27:29.145Z,75.12
2023-01-13T00:29:55.673Z,75.04
2023-01-13T00:32:22.119Z,75.28
2023-01-13T00:34:48.579Z,75.52
2023-01-13T00:37:15.207Z,75.59
2023-01-13T00:39:41.838Z,75.34
2023-01-13T00:42:26.922Z,76.09
2023-01-13T00:44:53.451Z,76.56
2023-01-13T00:47:19.941Z,76.66
2023-01-13T00:49:46.392Z,76.63
2023-01-13T00:52:12.935Z,76.12
2023-01-13T00:54:39.889Z,75.90
2023-01-13T00:57:06.365Z,76.27
2023-01-13T00:59:32.937Z,76.15
2023-01-13T01:01:59.543Z,75.78
2023-01-13T01:04:26.149Z,75.83
2023-01-13T01:06:52.673Z,75.64
2023-01-13T01:09:19.137Z,75.61
2023-01-13T01:11:45.717Z,75.82
2023-01-13T01:14:13.824Z,75.87
2023-01-13T01:16:41.691Z,76.31
2023-01-13T01:19:08.411Z,75.83
2023-01-13T01:21:35.240Z,75.68
2023-01-13T01:24:03.697Z,75.63
2023-01-13T01:26:31.348Z,75.90
2023-01-13T01:28:57.941Z,76.14
2023-01-13T01:31:31.540Z,75.99
2023-01-13T01:33:59.715Z,75.75
2023-01-13T01:36:30.012Z,75.93
2023-01-13T01:38:58.621Z,76.26
2023-01-13T01:41:30.320Z,75.81
2023-01-13T01:44:22.722Z,75.80
2023-01-13T01:46:49.298Z,76.18
2023-01-13T01:49:34.737Z,75.70
2023-01-13T01:52:06.664Z,75.18
2023-01-13T01:54:55.761Z,82.46
2023-01-13T01:57:42.623Z,89.77
2023-01-13T02:00:10.192Z,90.65
2023-01-13T02:02:37.613Z,90.39
2023-01-13T02:05:04.360Z,90.39
2023-01-13T02:07:34.268Z,87.56
2023-01-13T02:10:06.715Z,85.92
2023-01-13T02:12:34.498Z,87.05
2023-01-13T02:15:09.972Z,86.78
2023-01-13T02:18:01.185Z,87.24
2023-01-13T02:21:12.415Z,87.74
2023-01-13T02:23:57.283Z,88.38
2023-01-13T02:26:41.564Z,88.18
2023-01-13T02:30:07.505Z,87.72
2023-01-13T02:33:07.196Z,89.21
2023-01-13T02:36:05.471Z,89.58
2023-01-13T02:38:42.963Z,89.37
2023-01-13T02:41:38.943Z,88.33
2023-01-13T02:44:10.351Z,89.21
2023-01-13T02:47:06.297Z,89.62
2023-01-13T02:49:46.593Z,89.82
2023-01-13T02:52:25.779Z,89.57
2023-01-13T02:55:01.283Z,89.35
2023-01-13T02:57:33.866Z,89.50
2023-01-13T03:00:05.420Z,90.10
2023-01-13T03:02:32.123Z,89.54
2023-01-13T03:05:00.711Z,89.64
2023-01-13T03:08:09.907Z,89.24
2023-01-13T03:10:56.879Z,89.90
2023-01-13T03:13:57.561Z,89.63
2023-01-13T03:17:01.736Z,89.53
2023-01-13T03:19:57.110Z,89.84
2023-01-13T03:22:50.415Z,89.40
2023-01-13T03:25:31.468Z,90.11
2023-01-13T03:28:05.107Z,91.13
2023-01-13T03:30:52.552Z,90.35
2023-01-13T03:33:27.169Z,90.37
2023-01-13T03:36:03.685Z,89.60
2023-01-13T03:38:42.871Z,89.74
2023-01-13T03:41:22.160Z,89.73
2023-01-13T03:44:19.455Z,89.63
2023-01-13T03:47:18.280Z,89.62
2023-01-13T03:49:59.922Z,90.50
2023-01-13T03:52:34.696Z,89.41
2023-01-13T03:55:11.782Z,89.24
2023-01-13T03:58:08.640Z,89.14
2023-01-13T04:01:19.002Z,89.46
2023-01-13T04:04:06.068Z,88.24
2023-01-13T04:06:57.886Z,89.22
2023-01-13T04:09:41.584Z,89.41
2023-01-13T04:12:17.003Z,88.78
2023-01-13T04:14:45.235Z,89.16
2023-01-13T04:17:12.569Z,88.75
2023-01-13T04:19:39.114Z,88.45
2023-01-13T04:22:05.633Z,88.05
2023-01-13T04:24:32.107Z,88.74
2023-01-13T04:26:58.617Z,88.22
2023-01-13T04:29:25.148Z,88.77
2023-01-13T04:31:51.674Z,87.75
2023-01-13T04:34:18.185Z,88.11
2023-01-13T04:36:45.083Z,87.91
2023-01-13T04:39:11.983Z,86.24
2023-01-13T04:41:56.957Z,87.57
2023-01-13T04:44:23.507Z,87.98
2023-01-13T04:46:49.969Z,87.11
2023-01-13T04:49:16.510Z,87.88
2023-01-13T04:51:43.040Z,87.12
2023-01-13T04:54:12.358Z,87.16
2023-01-13T04:56:38.861Z,86.83
2023-01-13T04:59:05.550Z,87.14
2023-01-13T05:01:32.282Z,87.15
2023-01-13T05:03:58.810Z,87.01
2023-01-13T05:06:25.287Z,86.97
2023-01-13T05:08:51.799Z,86.92
2023-01-13T05:11:37.058Z,86.74
2023-01-13T05:14:22.323Z,86.68
2023-01-13T05:17:01.560Z,86.71
2023-01-13T05:19:32.966Z,86.97
2023-01-13T05:22:19.034Z,86.08
2023-01-13T05:25:04.190Z,86.29
2023-01-13T05:27:31.962Z,86.36
2023-01-13T05:29:59.016Z,85.97
2023-01-13T05:32:27.998Z,86.66
2023-01-13T05:34:55.795Z,86.03
2023-01-13T05:37:24.015Z,86.30
2023-01-13T05:40:09.275Z,85.35
2023-01-13T05:42:54.633Z,85.84
2023-01-13T05:45:21.411Z,85.42
2023-01-13T05:47:48.013Z,85.74
2023-01-13T05:50:14.963Z,85.48
2023-01-13T05:52:41.539Z,85.40
2023-01-13T05:55:08.587Z,86.49
2023-01-13T05:57:35.659Z,86.34
2023-01-13T06:00:02.631Z,86.12
2023-01-13T06:02:29.125Z,84.89
2023-01-13T06:04:55.599Z,85.21
2023-01-13T06:07:22.083Z,84.83
2023-01-13T06:09:48.565Z,85.70
2023-01-13T06:12:15.125Z,85.07
2023-01-13T06:14:41.595Z,85.11
2023-01-13T06:17:14.603Z,85.50
2023-01-13T06:19:42.313Z,84.90
2023-01-13T06:22:17.221Z,83.84
2023-01-13T06:24:48.467Z,83.50
2023-01-13T06:27:16.568Z,84.08
2023-01-13T06:29:43.287Z,84.73
2023-01-13T06:32:18.479Z,83.08
2023-01-13T06:34:54.889Z,82.72
2023-01-13T06:37:26.065Z,81.63
2023-01-13T06:39:58.543Z,80.28
2023-01-13T06:42:48.134Z,80.57
2023-01-13T06:45:14.822Z,79.99
2023-01-13T06:47:41.870Z,80.10
2023-01-13T06:50:09.687Z,80.19
2023-01-13T06:52:36.197Z,79.83
2023-01-13T06:55:03.649Z,79.27
2023-01-13T06:57:30.202Z,79.59
2023-01-13T06:59:56.689Z,79.69
2023-01-13T07:02:23.322Z,79.24
2023-01-13T07:04:49.842Z,79.13
2023-01-13T07:07:16.338Z,79.05
2023-01-13T07:09:42.850Z,79.00
2023-01-13T07:12:09.338Z,78.57
2023-01-13T07:15:11.683Z,78.11
2023-01-13T07:17:38.173Z,78.44
2023-01-13T07:20:05.430Z,78.32
2023-01-13T07:22:31.897Z,78.46
2023-01-13T07:24:58.385Z,78.24
2023-01-13T07:27:24.837Z,78.16
2023-01-13T07:29:51.377Z,78.41
2023-01-13T07:32:17.885Z,78.07
2023-01-13T07:34:44.367Z,77.69
2023-01-13T07:37:10.935Z,78.11
2023-01-13T07:39:37.497Z,77.78
2023-01-13T07:42:22.766Z,77.88
2023-01-13T07:44:49.286Z,77.84
2023-01-13T07:47:15.848Z,77.36
2023-01-13T07:49:42.327Z,77.37
2023-01-13T07:52:08.925Z,77.62
2023-01-13T07:54:40.952Z,77.15
2023-01-13T07:57:08.412Z,77.46
2023-01-13T07:59:35.034Z,77.31
2023-01-13T08:02:01.638Z,76.88
2023-01-13T08:04:28.336Z,76.69
2023-01-13T08:06:54.830Z,76.29
2023-01-13T08:09:21.288Z,75.86
2023-01-13T08:12:07.793Z,76.11
2023-01-13T08:14:34.265Z,76.04
2023-01-13T08:17:00.757Z,75.30
2023-01-13T08:19:27.254Z,75.58
2023-01-13T08:21:53.733Z,75.33
2023-01-13T08:24:20.239Z,74.90
2023-01-13T08:26:46.742Z,75.25
2023-01-13T08:29:15.070Z,74.64
2023-01-13T08:31:41.892Z,74.49
2023-01-13T08:34:08.624Z,74.19
2023-01-13T08:36:35.096Z,74.06
2023-01-13T08:39:01.666Z,74.02
2023-01-13T08:41:47.145Z,73.55
2023-01-13T08:44:13.615Z,73.39
2023-01-13T08:46:41.877Z,73.41
2023-01-13T08:49:08.600Z,73.92
2023-01-13T08:51:35.121Z,74.29
2023-01-13T08:54:02.195Z,73.70
2023-01-13T08:56:35.205Z,73.45
2023-01-13T08:59:02.571Z,74.20
2023-01-13T09:01:30.153Z,74.89
2023-01-13T09:03:56.744Z,75.26
2023-01-13T09:06:23.533Z,75.23
2023-01-13T09:08:50.174Z,75.82
2023-01-13T09:11:56.649Z,76.43
2023-01-13T09:14:26.682Z,76.21
2023-01-13T09:16:53.282Z,76.28
2023-01-13T09:19:19.795Z,76.55
2023-01-13T09:21:46.324Z,76.15
2023-01-13T09:24:13.175Z,76.05
2023-01-13T09:26:39.780Z,76.32
2023-01-13T09:29:06.392Z,75.39
2023-01-13T09:31:35.738Z,74.53
2023-01-13T09:34:22.845Z,74.49
2023-01-13T09:36:50.182Z,73.95
2023-01-13T09:39:18.003Z,74.12
2023-01-13T09:42:09.204Z,72.89
2023-01-13T09:44:55.567Z,72.93
2023-01-13T09:47:29.110Z,73.32
2023-01-13T09:50:13.959Z,72.87
2023-01-13T09:52:43.215Z,73.31
2023-01-13T09:55:38.538Z,71.23
2023-01-13T09:58:18.404Z,71.19
2023-01-13T10:01:28.072Z,70.38
2023-01-13T10:03:55.107Z,70.79
2023-01-13T10:06:35.898Z,69.77
2023-01-13T10:09:02.647Z,69.47
2023-01-13T10:11:58.958Z,68.54
2023-01-13T10:14:54.781Z,69.57
2023-01-13T10:17:31.149Z,69.82
2023-01-13T10:20:17.020Z,69.11
2023-01-13T10:23:18.865Z,69.32
2023-01-13T10:25:56.044Z,68.17
2023-01-13T10:28:23.939Z,68.37
2023-01-13T10:30:50.535Z,67.73
2023-01-13T10:33:26.262Z,67.95
2023-01-13T10:36:21.270Z,67.91
2023-01-13T10:38:50.394Z,68.25
2023-01-13T10:41:26.975Z,67.52
2023-01-13T10:44:19.518Z,66.92
2023-01-13T10:46:58.346Z,66.76
2023-01-13T10:49:38.523Z,65.99
2023-01-13T10:52:27.539Z,65.90
2023-01-13T10:54:55.711Z,65.36
2023-01-13T10:57:27.698Z,66.40
2023-01-13T10:59:55.585Z,66.84
2023-01-13T11:02:35.749Z,64.51
2023-01-13T11:05:21.864Z,63.17
2023-01-13T11:07:52.484Z,64.02
2023-01-13T11:10:32.494Z,62.44
2023-01-13T11:13:09.708Z,62.84
2023-01-13T11:15:57.532Z,62.72
2023-01-13T11:18:40.307Z,61.63
2023-01-13T11:21:23.122Z,61.80
2023-01-13T11:24:10.387Z,62.92
2023-01-13T11:26:53.562Z,63.14
2023-01-13T11:29:40.251Z,63.35
2023-01-13T11:32:17.345Z,61.68
2023-01-13T11:34:52.346Z,61.62
2023-01-13T11:37:27.571Z,61.81
2023-01-13T11:40:05.628Z,61.90
2023-01-13T11:42:40.080Z,62.55
2023-01-13T11:45:38.077Z,61.43
2023-01-13T11:48:05.254Z,62.03
2023-01-13T11:50:51.132Z,62.46
2023-01-13T11:53:53.137Z,62.05
2023-01-13T11:57:12.380Z,63.74
2023-01-13T12:00:03.049Z,63.80
2023-01-13T12:03:18.811Z,62.06
2023-01-13T12:05:59.325Z,63.32
2023-01-13T12:08:51.983Z,63.11
2023-01-13T12:12:15.026Z,63.05
2023-01-13T12:14:44.102Z,62.29
2023-01-13T12:17:30.056Z,62.49
2023-01-13T12:19:56.815Z,62.00
2023-01-13T12:22:35.337Z,61.16
2023-01-13T12:25:24.177Z,58.22
2023-01-13T12:28:10.703Z,60.44
2023-01-13T12:30:57.807Z,59.68
2023-01-13T12:33:47.137Z,59.12
2023-01-13T12:37:02.715Z,60.89
2023-01-13T12:40:12.958Z,60.49
2023-01-13T12:43:13.311Z,60.50
2023-01-13T12:45:40.131Z,59.68
2023-01-13T12:48:06.700Z,60.16
2023-01-13T12:50:40.685Z,60.72
2023-01-13T12:53:32.873Z,60.00
2023-01-13T12:56:25.577Z,59.58
2023-01-13T12:58:52.030Z,60.24
2023-01-13T13:01:33.919Z,61.38
2023-01-13T13:04:09.384Z,64.50
2023-01-13T13:06:41.837Z,67.53
2023-01-13T13:09:32.985Z,68.09
2023-01-13T13:13:10.366Z,67.48
2023-01-13T13:15:37.540Z,64.95
2023-01-13T13:18:20.351Z,65.41
2023-01-13T13:21:08.929Z,65.29
2023-01-13T13:23:45.755Z,65.69
2023-01-13T13:26:12.127Z,66.82
2023-01-13T13:29:08.794Z,65.73
2023-01-13T13:31:59.143Z,65.13
2023-01-13T13:35:16.707Z,65.88
2023-01-13T13:38:28.608Z,65.67
2023-01-13T13:41:13.891Z,66.56
2023-01-13T13:44:04.145Z,66.32
2023-01-13T13:46:47.279Z,66.77
2023-01-13T13:49:17.152Z,65.99
2023-01-13T13:52:04.607Z,65.44
2023-01-13T13:54:32.484Z,65.18
2023-01-13T13:56:59.303Z,64.98
2023-01-13T13:59:33.504Z,65.39
2023-01-13T14:02:02.005Z,65.45
2023-01-13T14:04:35.382Z,65.08
2023-01-13T14:07:20.496Z,65.17
2023-01-13T14:09:54.151Z,67.16
2023-01-13T14:12:25.361Z,68.10
2023-01-13T14:14:53.752Z,69.59
2023-01-13T14:17:27.778Z,71.06
2023-01-13T14:20:17.861Z,73.09
2023-01-13T14:22:53.794Z,72.85
2023-01-13T14:25:50.066Z,73.87
2023-01-13T14:28:35.895Z,74.90
2023-01-13T14:31:04.047Z,74.09
2023-01-13T14:33:39.317Z,72.94
2023-01-13T14:36:14.626Z,71.98
2023-01-13T14:38:44.271Z,71.40
2023-01-13T14:41:18.011Z,71.58
2023-01-13T14:43:47.167Z,71.27
2023-01-13T14:46:15.173Z,72.01
2023-01-13T14:48:46.940Z,71.80
2023-01-13T14:51:25.176Z,71.57
2023-01-13T14:53:52.578Z,71.60
2023-01-13T14:56:40.466Z,72.14
2023-01-13T14:59:48.260Z,71.53
2023-01-13T15:02:29.980Z,71.31
2023-01-13T15:05:01.228Z,71.87
2023-01-13T15:07:31.791Z,72.37
2023-01-13T15:10:04.571Z,72.00
2023-01-13T15:12:39.405Z,72.15
2023-01-13T15:15:28.878Z,72.15
2023-01-13T15:17:55.703Z,72.31
2023-01-13T15:20:24.273Z,72.32
2023-01-13T15:22:52.522Z,71.63
2023-01-13T15:25:20.053Z,71.47
2023-01-13T15:27:50.877Z,71.31
2023-01-13T15:30:22.477Z,71.71
2023-01-13T15:32:48.958Z,72.20
2023-01-13T15:35:20.714Z,71.37
2023-01-13T15:37:49.082Z,71.44
2023-01-13T15:40:25.409Z,72.07
2023-01-13T15:43:10.312Z,72.87
2023-01-13T15:45:56.587Z,72.91
2023-01-13T15:48:27.844Z,72.59
2023-01-13T15:50:54.348Z,72.34
2023-01-13T15:53:21.007Z,72.78
2023-01-13T15:55:53.479Z,72.41
2023-01-13T15:58:26.085Z,72.93
2023-01-13T16:00:53.704Z,72.75
2023-01-13T16:03:20.279Z,72.73
2023-01-13T16:05:46.875Z,72.89
2023-01-13T16:08:18.977Z,72.62
2023-01-13T16:10:46.810Z,72.36
2023-01-13T16:13:14.941Z,72.55
2023-01-13T16:15:50.571Z,72.53
2023-01-13T16:18:25.877Z,72.60
2023-01-13T16:20:55.002Z,72.79
2023-01-13T16:23:22.631Z,73.11
2023-01-13T16:25:50.895Z,72.41
2023-01-13T16:28:28.088Z,71.76
2023-01-13T16:30:54.864Z,72.57
2023-01-13T16:33:21.382Z,72.72
2023-01-13T16:36:10.504Z,73.27
2023-01-13T16:38:34.288Z,73.87
2023-01-13T16:41:00.783Z,73.91
2023-01-13T16:43:27.770Z,74.28
2023-01-13T16:45:54.477Z,74.74
2023-01-13T16:48:22.617Z,76.50
2023-01-13T16:50:49.203Z,75.89
2023-01-13T16:53:15.714Z,75.38
2023-01-13T16:55:43.099Z,74.53
2023-01-13T16:58:20.632Z,73.60
2023-01-13T17:00:48.143Z,76.98
2023-01-13T17:03:16.565Z,76.53
2023-01-13T17:05:49.320Z,79.82
2023-01-13T17:08:18.002Z,80.94
2023-01-13T17:10:47.850Z,82.24
2023-01-13T17:13:16.985Z,82.74
2023-01-13T17:15:45.151Z,83.21
2023-01-13T17:18:13.131Z,84.10
2023-01-13T17:20:39.598Z,83.05
2023-01-13T17:23:06.085Z,82.72
2023-01-13T17:25:32.539Z,81.84
2023-01-13T17:27:59.057Z,80.16
2023-01-13T17:30:25.552Z,79.59
2023-01-13T17:32:52.066Z,79.52
2023-01-13T17:35:22.869Z,79.29
2023-01-13T17:37:49.415Z,78.79
2023-01-13T17:40:16.996Z,77.39
2023-01-13T17:42:43.466Z,75.78
2023-01-13T17:45:12.063Z,74.36
2023-01-13T17:47:38.707Z,74.44
2023-01-13T17:50:06.065Z,73.86
2023-01-13T17:52:34.352Z,74.57
2023-01-13T17:55:00.881Z,73.03
2023-01-13T17:57:27.529Z,74.12
2023-01-13T17:59:54.053Z,74.78
2023-01-13T18:02:20.600Z,75.22
2023-01-13T18:04:47.145Z,74.55
2023-01-13T18:07:13.679Z,74.62
2023-01-13T18:09:40.223Z,74.88
2023-01-13T18:12:06.848Z,75.25
2023-01-13T18:14:34.456Z,75.42
2023-01-13T18:17:01.136Z,75.15
2023-01-13T18:19:46.191Z,75.13
2023-01-13T18:22:32.473Z,75.33
2023-01-13T18:25:17.624Z,75.46
2023-01-13T18:27:44.606Z,75.00
2023-01-13T18:30:12.532Z,74.60
2023-01-13T18:32:39.616Z,74.61
2023-01-13T18:35:10.486Z,74.01
2023-01-13T18:37:40.460Z,73.93
2023-01-13T18:40:11.696Z,74.12
2023-01-13T18:42:58.810Z,74.35
2023-01-13T18:45:27.862Z,74.15
2023-01-13T18:47:57.757Z,74.54
2023-01-13T18:50:24.605Z,74.10
2023-01-13T18:52:52.087Z,73.89
2023-01-13T18:55:18.827Z,73.38
2023-01-13T18:57:45.637Z,73.75
2023-01-13T19:00:17.448Z,73.80
2023-01-13T19:02:46.886Z,73.83
2023-01-13T19:05:14.318Z,73.61
2023-01-13T19:07:40.852Z,74.10
2023-01-13T19:10:09.672Z,73.87
2023-01-13T19:12:36.672Z,74.05
2023-01-13T19:15:03.487Z,74.51
2023-01-13T19:17:34.984Z,74.13
2023-01-13T19:20:04.288Z,74.31
2023-01-13T19:22:34.129Z,74.13
2023-01-13T19:25:02.940Z,74.08
2023-01-13T19:27:29.955Z,73.96
2023-01-13T19:30:01.785Z,73.93
2023-01-13T19:32:30.696Z,74.08
2023-01-13T19:34:59.484Z,73.77
2023-01-13T19:37:30.389Z,73.76
2023-01-13T19:40:00.468Z,73.38
2023-01-13T19:42:48.829Z,73.88
2023-01-13T19:45:29.222Z,74.01
2023-01-13T19:47:57.679Z,74.55
2023-01-13T19:50:25.190Z,74.19
2023-01-13T19:52:52.105Z,73.22
2023-01-13T19:55:19.740Z,73.22
2023-01-13T19:57:46.358Z,73.46
2023-01-13T20:00:16.706Z,73.02
2023-01-13T20:02:49.015Z,73.16
2023-01-13T20:05:21.248Z,72.94
2023-01-13T20:07:50.640Z,72.75
2023-01-13T20:10:20.542Z,72.89
2023-01-13T20:12:47.040Z,72.81
2023-01-13T20:15:14.013Z,72.67
2023-01-13T20:17:41.417Z,72.94
2023-01-13T20:20:10.034Z,72.71
2023-01-13T20:22:40.197Z,72.48
2023-01-13T20:25:08.816Z,72.23
2023-01-13T20:27:36.466Z,71.93
2023-01-13T20:30:06.307Z,72.11
2023-01-13T20:32:32.841Z,72.15
2023-01-13T20:34:59.325Z,71.66
2023-01-13T20:37:26.290Z,71.53
2023-01-13T20:39:52.976Z,71.27
2023-01-13T20:42:38.139Z,71.45
2023-01-13T20:45:05.778Z,71.07
2023-01-13T20:47:32.419Z,71.29
2023-01-13T20:49:59.212Z,71.74
2023-01-13T20:52:26.473Z,71.68
2023-01-13T20:54:53.054Z,72.33
2023-01-13T20:57:19.536Z,71.72
2023-01-13T20:59:46.580Z,71.69
2023-01-13T21:02:15.841Z,71.62
2023-01-13T21:04:42.878Z,72.17
2023-01-13T21:07:09.956Z,71.84
2023-01-13T21:09:37.899Z,71.93
2023-01-13T21:12:23.840Z,71.54
2023-01-13T21:15:09.130Z,71.60
2023-01-13T21:17:54.811Z,71.49
2023-01-13T21:20:21.551Z,71.97
2023-01-13T21:22:49.249Z,71.22
2023-01-13T21:25:17.646Z,71.82
2023-01-13T21:27:44.206Z,71.90
2023-01-13T21:30:14.669Z,71.48
2023-01-13T21:32:45.564Z,71.76
2023-01-13T21:35:14.457Z,71.96
2023-01-13T21:37:43.531Z,71.74
2023-01-13T21:40:13.838Z,71.88
2023-01-13T21:42:58.921Z,72.48
2023-01-13T21:45:44.210Z,72.34
2023-01-13T21:48:10.826Z,72.12
2023-01-13T21:50:38.179Z,72.62
2023-01-13T21:53:07.212Z,72.40
2023-01-13T21:55:36.592Z,72.17
2023-01-13T21:58:15.230Z,71.86
2023-01-13T22:00:44.659Z,71.18
2023-01-13T22:03:14.596Z,71.60
2023-01-13T22:05:41.683Z,71.96
2023-01-13T22:08:08.624Z,71.60
2023-01-13T22:10:35.719Z,71.36
2023-01-13T22:13:23.845Z,71.60
2023-01-13T22:15:50.419Z,71.62
2023-01-13T22:18:18.180Z,71.88
2023-01-13T22:20:45.350Z,71.64
2023-01-13T22:23:12.087Z,71.46
2023-01-13T22:25:38.565Z,72.07
2023-01-13T22:28:06.029Z,71.50
2023-01-13T22:30:33.220Z,71.75
2023-01-13T22:33:00.294Z,71.60
2023-01-13T22:35:26.957Z,71.78
2023-01-13T22:37:53.437Z,71.27
2023-01-13T22:40:20.128Z,71.76
2023-01-13T22:42:46.587Z,71.83
2023-01-13T22:45:14.430Z,71.19
2023-01-13T22:47:41.056Z,71.36
2023-01-13T22:50:09.866Z,71.27
2023-01-13T22:52:36.482Z,70.96
2023-01-13T22:55:04.081Z,70.91
2023-01-13T22:57:46.496Z,71.50
2023-01-13T23:00:14.944Z,71.79
2023-01-13T23:02:41.662Z,70.93
2023-01-13T23:05:08.660Z,71.13
2023-01-13T23:07:35.607Z,71.54
2023-01-13T23:10:02.647Z,71.31
2023-01-13T23:12:29.139Z,71.30
2023-01-13T23:14:55.577Z,70.94
2023-01-13T23:17:22.075Z,70.86
2023-01-13T23:19:48.507Z,70.88
2023-01-13T23:22:15.528Z,71.30
2023-01-13T23:24:42.038Z,70.98
2023-01-13T23:27:08.476Z,70.69
2023-01-13T23:29:34.961Z,70.40
2023-01-13T23:32:01.447Z,70.58
2023-01-13T23:34:28.022Z,71.47
2023-01-13T23:36:54.544Z,71.55
2023-01-13T23:39:21.085Z,71.03
2023-01-13T23:41:47.508Z,70.61
2023-01-13T23:44:13.995Z,71.25
2023-01-13T23:46:40.636Z,71.18
2023-01-13T23:49:07.270Z,71.30
2023-01-13T23:51:33.922Z,71.54
2023-01-13T23:54:00.559Z,70.53
2023-01-13T23:56:30.912Z,70.99
2023-01-13T23:58:57.948Z,70.88
